sensor_id;sensor_type;location;lat;lon;timestamp;temperature;humidity
7216;DHT22;3649;48.798;9.798;2023-07-13T00:01:54;25.20;99.90
7216;DHT22;3649;48.798;9.798;2023-07-13T00:04:23;25.20;99.90
7216;DHT22;3649;48.798;9.798;2023-07-13T00:06:53;25.20;99.90
7216;DHT22;3649;48.798;9.798;2023-07-13T00:09:21;25.30;99.90
7216;DHT22;3649;48.798;9.798;2023-07-13T00:11:55;25.20;99.90
7216;DHT22;3649;48.798;9.798;2023-07-13T00:14:23;25.10;99.90
7216;DHT22;3649;48.798;9.798;2023-07-13T00:16:51;25.10;99.90
7216;DHT22;3649;48.798;9.798;2023-07-13T00:19:18;25.10;99.90
7216;DHT22;3649;48.798;9.798;2023-07-13T00:21:45;25.10;99.90
7216;DHT22;3649;48.798;9.798;2023-07-13T00:24:14;25.10;99.90
7216;DHT22;3649;48.798;9.798;2023-07-13T00:26:42;25.00;99.90
7216;DHT22;3649;48.798;9.798;2023-07-13T00:29:13;25.00;99.90
7216;DHT22;3649;48.798;9.798;2023-07-13T00:31:40;25.00;99.90
7216;DHT22;3649;48.798;9.798;2023-07-13T00:34:07;25.00;99.90
7216;DHT22;3649;48.798;9.798;2023-07-13T00:36:34;24.90;99.90
7216;DHT22;3649;48.798;9.798;2023-07-13T00:39:01;24.90;99.90
7216;DHT22;3649;48.798;9.798;2023-07-13T00:41:28;24.90;99.90
7216;DHT22;3649;48.798;9.798;2023-07-13T00:43:55;24.90;99.90
7216;DHT22;3649;48.798;9.798;2023-07-13T00:46:26;24.80;99.90
7216;DHT22;3649;48.798;9.798;2023-07-13T00:48:54;24.80;99.90
7216;DHT22;3649;48.798;9.798;2023-07-13T00:51:30;24.70;99.90
7216;DHT22;3649;48.798;9.798;2023-07-13T00:54:00;24.60;99.90
7216;DHT22;3649;48.798;9.798;2023-07-13T00:56:31;24.70;99.90
7216;DHT22;3649;48.798;9.798;2023-07-13T00:58:59;24.70;99.90
7216;DHT22;3649;48.798;9.798;2023-07-13T01:01:28;24.70;99.90
7216;DHT22;3649;48.798;9.798;2023-07-13T01:03:55;24.70;99.90
7216;DHT22;3649;48.798;9.798;2023-07-13T01:06:23;24.70;99.90
7216;DHT22;3649;48.798;9.798;2023-07-13T01:08:50;24.70;99.90
7216;DHT22;3649;48.798;9.798;2023-07-13T01:11:21;24.70;99.90
7216;DHT22;3649;48.798;9.798;2023-07-13T01:13:51;24.60;99.90
7216;DHT22;3649;48.798;9.798;2023-07-13T01:16:24;24.70;99.90
7216;DHT22;3649;48.798;9.798;2023-07-13T01:18:53;24.70;99.90
7216;DHT22;3649;48.798;9.798;2023-07-13T01:21:20;24.70;99.90
7216;DHT22;3649;48.798;9.798;2023-07-13T01:23:47;24.70;99.90
7216;DHT22;3649;48.798;9.798;2023-07-13T01:26:14;24.70;99.90
7216;DHT22;3649;48.798;9.798;2023-07-13T01:28:41;24.70;99.90
7216;DHT22;3649;48.798;9.798;2023-07-13T01:31:09;24.70;99.90
7216;DHT22;3649;48.798;9.798;2023-07-13T01:33:38;24.70;99.90
7216;DHT22;3649;48.798;9.798;2023-07-13T01:36:10;24.60;99.90
7216;DHT22;3649;48.798;9.798;2023-07-13T01:38:37;24.60;99.90
7216;DHT22;3649;48.798;9.798;2023-07-13T01:41:04;24.50;99.90
7216;DHT22;3649;48.798;9.798;2023-07-13T01:43:31;24.50;99.90
7216;DHT22;3649;48.798;9.798;2023-07-13T01:45:59;24.50;99.90
7216;DHT22;3649;48.798;9.798;2023-07-13T01:48:46;24.50;99.80
7216;DHT22;3649;48.798;9.798;2023-07-13T01:51:13;24.60;99.90
7216;DHT22;3649;48.798;9.798;2023-07-13T01:53:40;24.60;99.90
7216;DHT22;3649;48.798;9.798;2023-07-13T01:56:07;24.60;99.90
7216;DHT22;3649;48.798;9.798;2023-07-13T01:58:34;24.50;99.90
7216;DHT22;3649;48.798;9.798;2023-07-13T02:01:01;24.40;99.90
7216;DHT22;3649;48.798;9.798;2023-07-13T02:03:28;24.40;99.90
7216;DHT22;3649;48.798;9.798;2023-07-13T02:05:55;24.40;99.90
7216;DHT22;3649;48.798;9.798;2023-07-13T02:08:22;24.40;99.90
7216;DHT22;3649;48.798;9.798;2023-07-13T02:10:49;24.40;99.90
7216;DHT22;3649;48.798;9.798;2023-07-13T02:13:16;24.30;99.90
7216;DHT22;3649;48.798;9.798;2023-07-13T02:15:42;24.30;99.90
7216;DHT22;3649;48.798;9.798;2023-07-13T02:18:10;24.30;99.90
7216;DHT22;3649;48.798;9.798;2023-07-13T02:20:37;24.20;99.90
7216;DHT22;3649;48.798;9.798;2023-07-13T02:23:04;24.30;99.90
7216;DHT22;3649;48.798;9.798;2023-07-13T02:25:35;24.30;99.90
7216;DHT22;3649;48.798;9.798;2023-07-13T02:28:02;24.20;99.90
7216;DHT22;3649;48.798;9.798;2023-07-13T02:30:30;24.20;99.90
7216;DHT22;3649;48.798;9.798;2023-07-13T02:32:57;24.10;99.90
7216;DHT22;3649;48.798;9.798;2023-07-13T02:35:24;24.10;99.90
7216;DHT22;3649;48.798;9.798;2023-07-13T02:37:51;24.10;99.90
7216;DHT22;3649;48.798;9.798;2023-07-13T02:40:18;24.10;99.90
7216;DHT22;3649;48.798;9.798;2023-07-13T02:42:45;24.00;99.90
7216;DHT22;3649;48.798;9.798;2023-07-13T02:45:12;23.90;99.90
7216;DHT22;3649;48.798;9.798;2023-07-13T02:47:41;23.90;99.90
7216;DHT22;3649;48.798;9.798;2023-07-13T02:50:09;23.90;99.90
7216;DHT22;3649;48.798;9.798;2023-07-13T02:52:36;23.90;99.90
7216;DHT22;3649;48.798;9.798;2023-07-13T02:55:03;23.90;99.90
7216;DHT22;3649;48.798;9.798;2023-07-13T02:57:29;24.00;99.90
7216;DHT22;3649;48.798;9.798;2023-07-13T02:59:58;23.90;99.90
7216;DHT22;3649;48.798;9.798;2023-07-13T03:02:26;24.00;99.90
7216;DHT22;3649;48.798;9.798;2023-07-13T03:04:55;24.00;99.90
7216;DHT22;3649;48.798;9.798;2023-07-13T03:07:22;23.90;99.90
7216;DHT22;3649;48.798;9.798;2023-07-13T03:09:54;23.80;99.90
7216;DHT22;3649;48.798;9.798;2023-07-13T03:12:22;23.80;99.90
7216;DHT22;3649;48.798;9.798;2023-07-13T03:14:49;23.90;99.90
7216;DHT22;3649;48.798;9.798;2023-07-13T03:17:16;23.90;99.90
7216;DHT22;3649;48.798;9.798;2023-07-13T03:19:43;23.80;99.90
7216;DHT22;3649;48.798;9.798;2023-07-13T03:22:10;23.70;99.90
7216;DHT22;3649;48.798;9.798;2023-07-13T03:24:37;23.60;99.90
7216;DHT22;3649;48.798;9.798;2023-07-13T03:27:06;23.60;99.90
7216;DHT22;3649;48.798;9.798;2023-07-13T03:29:33;23.50;99.90
7216;DHT22;3649;48.798;9.798;2023-07-13T03:32:00;23.60;99.90
7216;DHT22;3649;48.798;9.798;2023-07-13T03:34:27;23.60;99.90
7216;DHT22;3649;48.798;9.798;2023-07-13T03:36:54;23.50;99.90
7216;DHT22;3649;48.798;9.798;2023-07-13T03:39:22;23.40;99.90
7216;DHT22;3649;48.798;9.798;2023-07-13T03:41:49;23.40;99.90
7216;DHT22;3649;48.798;9.798;2023-07-13T03:44:17;23.40;99.90
7216;DHT22;3649;48.798;9.798;2023-07-13T03:46:45;23.30;99.90
7216;DHT22;3649;48.798;9.798;2023-07-13T03:49:12;23.30;99.90
7216;DHT22;3649;48.798;9.798;2023-07-13T03:51:39;23.30;99.90
7216;DHT22;3649;48.798;9.798;2023-07-13T03:54:06;23.20;99.90
7216;DHT22;3649;48.798;9.798;2023-07-13T03:56:33;23.20;99.90
7216;DHT22;3649;48.798;9.798;2023-07-13T03:59:00;23.20;99.90
7216;DHT22;3649;48.798;9.798;2023-07-13T04:01:27;23.30;99.90
7216;DHT22;3649;48.798;9.798;2023-07-13T04:03:54;23.40;99.90
7216;DHT22;3649;48.798;9.798;2023-07-13T04:06:25;23.40;99.90
7216;DHT22;3649;48.798;9.798;2023-07-13T04:08:54;23.50;99.90
7216;DHT22;3649;48.798;9.798;2023-07-13T04:11:23;23.50;99.90
7216;DHT22;3649;48.798;9.798;2023-07-13T04:13:51;23.40;99.90
7216;DHT22;3649;48.798;9.798;2023-07-13T04:16:18;23.30;99.90
7216;DHT22;3649;48.798;9.798;2023-07-13T04:18:46;23.30;99.90
7216;DHT22;3649;48.798;9.798;2023-07-13T04:21:14;23.30;99.90
7216;DHT22;3649;48.798;9.798;2023-07-13T04:23:41;23.30;99.90
7216;DHT22;3649;48.798;9.798;2023-07-13T04:26:08;23.40;99.90
7216;DHT22;3649;48.798;9.798;2023-07-13T04:28:36;23.40;99.90
7216;DHT22;3649;48.798;9.798;2023-07-13T04:31:03;23.40;99.90
7216;DHT22;3649;48.798;9.798;2023-07-13T04:33:30;23.30;99.90
7216;DHT22;3649;48.798;9.798;2023-07-13T04:35:57;23.40;99.90
7216;DHT22;3649;48.798;9.798;2023-07-13T04:38:28;23.30;99.90
7216;DHT22;3649;48.798;9.798;2023-07-13T04:40:57;23.20;99.90
7216;DHT22;3649;48.798;9.798;2023-07-13T04:43:25;23.20;99.90
7216;DHT22;3649;48.798;9.798;2023-07-13T04:45:52;23.10;99.90
7216;DHT22;3649;48.798;9.798;2023-07-13T04:48:20;23.10;99.90
7216;DHT22;3649;48.798;9.798;2023-07-13T04:50:47;23.10;99.90
7216;DHT22;3649;48.798;9.798;2023-07-13T04:53:14;23.30;99.90
7216;DHT22;3649;48.798;9.798;2023-07-13T04:55:42;23.30;99.90
7216;DHT22;3649;48.798;9.798;2023-07-13T04:58:09;23.30;99.90
7216;DHT22;3649;48.798;9.798;2023-07-13T05:00:36;23.30;99.90
7216;DHT22;3649;48.798;9.798;2023-07-13T05:03:03;23.30;99.90
7216;DHT22;3649;48.798;9.798;2023-07-13T05:05:30;23.40;99.90
7216;DHT22;3649;48.798;9.798;2023-07-13T05:07:57;23.50;99.90
7216;DHT22;3649;48.798;9.798;2023-07-13T05:10:24;23.40;99.90
7216;DHT22;3649;48.798;9.798;2023-07-13T05:12:51;23.40;99.90
7216;DHT22;3649;48.798;9.798;2023-07-13T05:15:20;23.30;99.90
7216;DHT22;3649;48.798;9.798;2023-07-13T05:17:48;23.40;99.90
7216;DHT22;3649;48.798;9.798;2023-07-13T05:20:17;23.40;99.90
7216;DHT22;3649;48.798;9.798;2023-07-13T05:22:45;23.50;99.90
7216;DHT22;3649;48.798;9.798;2023-07-13T05:25:15;23.50;99.90
7216;DHT22;3649;48.798;9.798;2023-07-13T05:27:42;23.50;99.90
7216;DHT22;3649;48.798;9.798;2023-07-13T05:30:09;23.50;99.90
7216;DHT22;3649;48.798;9.798;2023-07-13T05:32:37;23.60;99.90
7216;DHT22;3649;48.798;9.798;2023-07-13T05:35:05;23.50;99.90
7216;DHT22;3649;48.798;9.798;2023-07-13T05:37:32;23.50;99.90
7216;DHT22;3649;48.798;9.798;2023-07-13T05:39:59;23.60;99.80
7216;DHT22;3649;48.798;9.798;2023-07-13T05:42:26;23.60;99.60
7216;DHT22;3649;48.798;9.798;2023-07-13T05:44:53;23.60;99.60
7216;DHT22;3649;48.798;9.798;2023-07-13T05:47:20;23.60;99.70
7216;DHT22;3649;48.798;9.798;2023-07-13T05:49:47;23.50;99.80
7216;DHT22;3649;48.798;9.798;2023-07-13T05:52:14;23.50;99.90
7216;DHT22;3649;48.798;9.798;2023-07-13T05:54:41;23.60;99.90
7216;DHT22;3649;48.798;9.798;2023-07-13T05:57:08;23.60;99.90
7216;DHT22;3649;48.798;9.798;2023-07-13T05:59:36;23.50;99.90
7216;DHT22;3649;48.798;9.798;2023-07-13T06:02:03;23.50;99.90
7216;DHT22;3649;48.798;9.798;2023-07-13T06:04:30;23.60;99.80
7216;DHT22;3649;48.798;9.798;2023-07-13T06:06:57;23.70;99.20
7216;DHT22;3649;48.798;9.798;2023-07-13T06:09:24;23.80;99.00
7216;DHT22;3649;48.798;9.798;2023-07-13T06:11:51;23.80;98.90
7216;DHT22;3649;48.798;9.798;2023-07-13T06:14:18;23.70;98.90
7216;DHT22;3649;48.798;9.798;2023-07-13T06:16:45;23.80;98.80
7216;DHT22;3649;48.798;9.798;2023-07-13T06:19:12;23.80;98.20
7216;DHT22;3649;48.798;9.798;2023-07-13T06:21:39;23.80;98.20
7216;DHT22;3649;48.798;9.798;2023-07-13T06:24:06;23.80;98.20
7216;DHT22;3649;48.798;9.798;2023-07-13T06:26:33;23.80;98.30
7216;DHT22;3649;48.798;9.798;2023-07-13T06:28:59;23.80;98.00
7216;DHT22;3649;48.798;9.798;2023-07-13T06:31:26;23.90;97.70
7216;DHT22;3649;48.798;9.798;2023-07-13T06:33:53;24.00;97.70
7216;DHT22;3649;48.798;9.798;2023-07-13T06:36:20;24.00;98.00
7216;DHT22;3649;48.798;9.798;2023-07-13T06:38:47;24.10;97.60
7216;DHT22;3649;48.798;9.798;2023-07-13T06:41:14;24.10;97.60
7216;DHT22;3649;48.798;9.798;2023-07-13T06:43:41;24.10;97.50
7216;DHT22;3649;48.798;9.798;2023-07-13T06:46:08;24.10;97.60
7216;DHT22;3649;48.798;9.798;2023-07-13T06:48:36;24.20;97.60
7216;DHT22;3649;48.798;9.798;2023-07-13T06:51:03;24.20;97.80
7216;DHT22;3649;48.798;9.798;2023-07-13T06:53:30;24.30;97.70
7216;DHT22;3649;48.798;9.798;2023-07-13T06:55:57;24.40;97.60
7216;DHT22;3649;48.798;9.798;2023-07-13T06:58:24;24.50;97.40
7216;DHT22;3649;48.798;9.798;2023-07-13T07:00:52;24.70;96.90
7216;DHT22;3649;48.798;9.798;2023-07-13T07:03:19;24.80;96.70
7216;DHT22;3649;48.798;9.798;2023-07-13T07:05:46;24.90;96.40
7216;DHT22;3649;48.798;9.798;2023-07-13T07:08:13;24.90;96.20
7216;DHT22;3649;48.798;9.798;2023-07-13T07:10:42;24.90;96.40
7216;DHT22;3649;48.798;9.798;2023-07-13T07:13:08;24.90;96.60
7216;DHT22;3649;48.798;9.798;2023-07-13T07:15:35;24.80;96.40
7216;DHT22;3649;48.798;9.798;2023-07-13T07:18:03;24.80;96.20
7216;DHT22;3649;48.798;9.798;2023-07-13T07:20:30;24.70;96.40
7216;DHT22;3649;48.798;9.798;2023-07-13T07:22:59;24.80;96.10
7216;DHT22;3649;48.798;9.798;2023-07-13T07:25:26;24.70;96.30
7216;DHT22;3649;48.798;9.798;2023-07-13T07:27:53;24.70;96.60
7216;DHT22;3649;48.798;9.798;2023-07-13T07:30:23;24.60;96.60
7216;DHT22;3649;48.798;9.798;2023-07-13T07:32:53;24.70;96.80
7216;DHT22;3649;48.798;9.798;2023-07-13T07:35:23;24.70;96.90
7216;DHT22;3649;48.798;9.798;2023-07-13T07:37:51;24.70;96.30
7216;DHT22;3649;48.798;9.798;2023-07-13T07:40:18;24.80;96.00
7216;DHT22;3649;48.798;9.798;2023-07-13T07:42:48;24.90;96.00
7216;DHT22;3649;48.798;9.798;2023-07-13T07:45:15;25.10;96.00
7216;DHT22;3649;48.798;9.798;2023-07-13T07:47:42;25.20;95.40
7216;DHT22;3649;48.798;9.798;2023-07-13T07:50:09;25.40;95.70
7216;DHT22;3649;48.798;9.798;2023-07-13T07:52:37;25.50;95.50
7216;DHT22;3649;48.798;9.798;2023-07-13T07:55:05;25.70;95.50
7216;DHT22;3649;48.798;9.798;2023-07-13T07:57:35;25.90;94.70
7216;DHT22;3649;48.798;9.798;2023-07-13T08:00:06;26.00;94.10
7216;DHT22;3649;48.798;9.798;2023-07-13T08:02:36;26.20;94.10
7216;DHT22;3649;48.798;9.798;2023-07-13T08:05:07;26.30;93.90
7216;DHT22;3649;48.798;9.798;2023-07-13T08:07:37;26.50;93.90
7216;DHT22;3649;48.798;9.798;2023-07-13T08:10:06;26.60;93.40
7216;DHT22;3649;48.798;9.798;2023-07-13T08:12:34;26.60;92.70
7216;DHT22;3649;48.798;9.798;2023-07-13T08:15:05;26.60;92.20
7216;DHT22;3649;48.798;9.798;2023-07-13T08:17:35;26.70;91.90
7216;DHT22;3649;48.798;9.798;2023-07-13T08:20:04;26.70;92.00
7216;DHT22;3649;48.798;9.798;2023-07-13T08:22:31;26.80;92.10
7216;DHT22;3649;48.798;9.798;2023-07-13T08:24:59;26.80;91.90
7216;DHT22;3649;48.798;9.798;2023-07-13T08:27:27;26.90;92.00
7216;DHT22;3649;48.798;9.798;2023-07-13T08:29:55;27.00;91.70
7216;DHT22;3649;48.798;9.798;2023-07-13T08:32:23;27.10;91.40
7216;DHT22;3649;48.798;9.798;2023-07-13T08:34:50;27.20;91.80
7216;DHT22;3649;48.798;9.798;2023-07-13T08:37:17;27.20;91.20
7216;DHT22;3649;48.798;9.798;2023-07-13T08:39:44;27.30;91.40
7216;DHT22;3649;48.798;9.798;2023-07-13T08:47:25;27.30;91.60
7216;DHT22;3649;48.798;9.798;2023-07-13T08:49:53;27.30;91.00
7216;DHT22;3649;48.798;9.798;2023-07-13T08:52:41;27.30;90.60
7216;DHT22;3649;48.798;9.798;2023-07-13T08:55:21;27.20;90.50
7216;DHT22;3649;48.798;9.798;2023-07-13T08:58:02;27.00;90.10
7216;DHT22;3649;48.798;9.798;2023-07-13T09:03:36;27.00;91.10
7216;DHT22;3649;48.798;9.798;2023-07-13T09:06:06;27.10;90.60
7216;DHT22;3649;48.798;9.798;2023-07-13T09:09:00;27.10;88.70
7216;DHT22;3649;48.798;9.798;2023-07-13T09:11:40;27.20;88.60
7216;DHT22;3649;48.798;9.798;2023-07-13T09:17:05;27.20;87.90
7216;DHT22;3649;48.798;9.798;2023-07-13T09:19:37;27.10;87.40
7216;DHT22;3649;48.798;9.798;2023-07-13T09:22:08;27.10;87.00
7216;DHT22;3649;48.798;9.798;2023-07-13T09:25:05;27.20;89.30
7216;DHT22;3649;48.798;9.798;2023-07-13T09:27:39;27.20;89.20
7216;DHT22;3649;48.798;9.798;2023-07-13T09:32:47;27.10;87.80
7216;DHT22;3649;48.798;9.798;2023-07-13T09:35:21;27.20;87.60
7216;DHT22;3649;48.798;9.798;2023-07-13T09:37:49;27.10;88.20
7216;DHT22;3649;48.798;9.798;2023-07-13T09:43:10;27.30;88.10
7216;DHT22;3649;48.798;9.798;2023-07-13T09:45:38;27.10;86.70
7216;DHT22;3649;48.798;9.798;2023-07-13T09:48:11;27.10;87.00
7216;DHT22;3649;48.798;9.798;2023-07-13T09:50:41;27.00;87.00
7216;DHT22;3649;48.798;9.798;2023-07-13T09:53:17;27.00;88.90
7216;DHT22;3649;48.798;9.798;2023-07-13T09:55:48;27.00;86.60
7216;DHT22;3649;48.798;9.798;2023-07-13T09:58:25;27.00;86.50
7216;DHT22;3649;48.798;9.798;2023-07-13T10:01:01;27.00;87.80
7216;DHT22;3649;48.798;9.798;2023-07-13T10:03:36;26.90;87.50
7216;DHT22;3649;48.798;9.798;2023-07-13T10:06:17;27.00;87.70
7216;DHT22;3649;48.798;9.798;2023-07-13T10:08:45;27.00;87.20
7216;DHT22;3649;48.798;9.798;2023-07-13T10:11:30;27.00;86.10
7216;DHT22;3649;48.798;9.798;2023-07-13T10:14:00;27.10;86.60
7216;DHT22;3649;48.798;9.798;2023-07-13T10:16:31;27.10;86.00
7216;DHT22;3649;48.798;9.798;2023-07-13T10:19:24;27.00;86.30
7216;DHT22;3649;48.798;9.798;2023-07-13T10:24:32;26.80;84.60
7216;DHT22;3649;48.798;9.798;2023-07-13T10:27:19;26.80;85.50
7216;DHT22;3649;48.798;9.798;2023-07-13T10:30:11;26.70;87.10
7216;DHT22;3649;48.798;9.798;2023-07-13T10:32:43;26.70;85.30
7216;DHT22;3649;48.798;9.798;2023-07-13T10:35:14;26.80;85.70
7216;DHT22;3649;48.798;9.798;2023-07-13T10:38:06;26.80;84.70
7216;DHT22;3649;48.798;9.798;2023-07-13T10:40:40;26.80;85.80
7216;DHT22;3649;48.798;9.798;2023-07-13T10:43:40;26.90;86.70
7216;DHT22;3649;48.798;9.798;2023-07-13T10:46:11;26.90;84.80
7216;DHT22;3649;48.798;9.798;2023-07-13T10:48:40;27.00;84.40
7216;DHT22;3649;48.798;9.798;2023-07-13T10:51:10;27.00;86.90
7216;DHT22;3649;48.798;9.798;2023-07-13T10:53:39;27.00;85.20
7216;DHT22;3649;48.798;9.798;2023-07-13T10:56:30;27.10;84.20
7216;DHT22;3649;48.798;9.798;2023-07-13T11:01:58;27.10;83.60
7216;DHT22;3649;48.798;9.798;2023-07-13T11:04:29;27.10;84.40
7216;DHT22;3649;48.798;9.798;2023-07-13T11:07:17;27.10;83.50
7216;DHT22;3649;48.798;9.798;2023-07-13T11:09:50;27.10;83.00
7216;DHT22;3649;48.798;9.798;2023-07-13T11:23:06;27.30;84.20
7216;DHT22;3649;48.798;9.798;2023-07-13T11:25:35;27.40;83.50
7216;DHT22;3649;48.798;9.798;2023-07-13T11:36:03;27.40;82.90
7216;DHT22;3649;48.798;9.798;2023-07-13T11:38:47;27.40;83.40
7216;DHT22;3649;48.798;9.798;2023-07-13T11:41:28;27.40;83.30
7216;DHT22;3649;48.798;9.798;2023-07-13T11:44:11;27.40;84.70
7216;DHT22;3649;48.798;9.798;2023-07-13T11:46:38;27.40;84.20
7216;DHT22;3649;48.798;9.798;2023-07-13T11:49:07;27.30;85.70
7216;DHT22;3649;48.798;9.798;2023-07-13T11:51:35;27.30;85.90
7216;DHT22;3649;48.798;9.798;2023-07-13T11:54:10;27.30;87.00
7216;DHT22;3649;48.798;9.798;2023-07-13T11:56:41;27.30;86.30
7216;DHT22;3649;48.798;9.798;2023-07-13T11:59:12;27.40;84.00
7216;DHT22;3649;48.798;9.798;2023-07-13T12:01:47;27.50;84.40
7216;DHT22;3649;48.798;9.798;2023-07-13T12:07:03;27.60;82.80
7216;DHT22;3649;48.798;9.798;2023-07-13T12:09:30;27.60;83.70
7216;DHT22;3649;48.798;9.798;2023-07-13T12:11:57;27.70;83.70
7216;DHT22;3649;48.798;9.798;2023-07-13T12:14:27;27.70;84.00
7216;DHT22;3649;48.798;9.798;2023-07-13T12:16:55;27.70;85.90
7216;DHT22;3649;48.798;9.798;2023-07-13T12:19:25;27.70;85.60
7216;DHT22;3649;48.798;9.798;2023-07-13T12:21:56;27.60;85.90
7216;DHT22;3649;48.798;9.798;2023-07-13T12:24:24;27.70;84.30
7216;DHT22;3649;48.798;9.798;2023-07-13T12:27:00;27.70;83.70
7216;DHT22;3649;48.798;9.798;2023-07-13T12:29:28;27.80;84.00
7216;DHT22;3649;48.798;9.798;2023-07-13T12:31:55;27.80;82.90
7216;DHT22;3649;48.798;9.798;2023-07-13T12:34:24;27.80;84.10
7216;DHT22;3649;48.798;9.798;2023-07-13T12:37:00;27.80;82.70
7216;DHT22;3649;48.798;9.798;2023-07-13T12:39:39;27.80;82.90
7216;DHT22;3649;48.798;9.798;2023-07-13T12:45:05;27.90;83.50
7216;DHT22;3649;48.798;9.798;2023-07-13T12:47:44;27.90;82.70
7216;DHT22;3649;48.798;9.798;2023-07-13T12:50:19;27.90;82.60
7216;DHT22;3649;48.798;9.798;2023-07-13T12:52:54;28.00;82.10
7216;DHT22;3649;48.798;9.798;2023-07-13T12:55:23;28.00;82.10
7216;DHT22;3649;48.798;9.798;2023-07-13T12:57:54;28.00;83.70
7216;DHT22;3649;48.798;9.798;2023-07-13T13:00:29;28.00;83.50
7216;DHT22;3649;48.798;9.798;2023-07-13T13:03:29;28.10;82.40
7216;DHT22;3649;48.798;9.798;2023-07-13T13:06:00;28.10;82.90
7216;DHT22;3649;48.798;9.798;2023-07-13T13:08:31;28.00;84.10
7216;DHT22;3649;48.798;9.798;2023-07-13T13:10:57;28.00;83.40
7216;DHT22;3649;48.798;9.798;2023-07-13T13:13:24;28.00;83.60
7216;DHT22;3649;48.798;9.798;2023-07-13T13:15:51;28.00;83.20
7216;DHT22;3649;48.798;9.798;2023-07-13T13:18:21;28.00;85.10
7216;DHT22;3649;48.798;9.798;2023-07-13T13:20:49;28.00;85.80
7216;DHT22;3649;48.798;9.798;2023-07-13T13:23:19;27.90;84.30
7216;DHT22;3649;48.798;9.798;2023-07-13T13:25:49;28.00;83.60
7216;DHT22;3649;48.798;9.798;2023-07-13T13:28:19;28.00;83.40
7216;DHT22;3649;48.798;9.798;2023-07-13T13:30:49;28.00;83.70
7216;DHT22;3649;48.798;9.798;2023-07-13T13:33:19;28.00;82.70
7216;DHT22;3649;48.798;9.798;2023-07-13T13:35:47;27.90;84.50
7216;DHT22;3649;48.798;9.798;2023-07-13T13:38:16;27.90;85.20
7216;DHT22;3649;48.798;9.798;2023-07-13T13:40:45;28.00;83.50
7216;DHT22;3649;48.798;9.798;2023-07-13T13:43:16;28.00;85.30
7216;DHT22;3649;48.798;9.798;2023-07-13T13:45:45;27.90;84.90
7216;DHT22;3649;48.798;9.798;2023-07-13T13:48:29;27.90;84.10
7216;DHT22;3649;48.798;9.798;2023-07-13T13:50:58;27.90;85.60
7216;DHT22;3649;48.798;9.798;2023-07-13T13:53:26;28.00;83.10
7216;DHT22;3649;48.798;9.798;2023-07-13T13:55:53;28.10;84.60
7216;DHT22;3649;48.798;9.798;2023-07-13T13:58:21;28.10;83.50
7216;DHT22;3649;48.798;9.798;2023-07-13T14:00:48;28.00;84.00
7216;DHT22;3649;48.798;9.798;2023-07-13T14:03:18;28.20;82.10
7216;DHT22;3649;48.798;9.798;2023-07-13T14:05:46;28.20;81.70
7216;DHT22;3649;48.798;9.798;2023-07-13T14:08:19;28.20;80.70
7216;DHT22;3649;48.798;9.798;2023-07-13T14:10:48;28.10;82.60
7216;DHT22;3649;48.798;9.798;2023-07-13T14:13:26;28.20;83.00
7216;DHT22;3649;48.798;9.798;2023-07-13T14:15:54;28.20;85.10
7216;DHT22;3649;48.798;9.798;2023-07-13T14:18:21;28.20;82.90
7216;DHT22;3649;48.798;9.798;2023-07-13T14:20:48;28.30;83.30
7216;DHT22;3649;48.798;9.798;2023-07-13T14:23:16;28.30;81.90
7216;DHT22;3649;48.798;9.798;2023-07-13T14:25:46;28.40;83.40
7216;DHT22;3649;48.798;9.798;2023-07-13T14:28:21;28.40;81.40
7216;DHT22;3649;48.798;9.798;2023-07-13T14:30:49;28.40;82.00
7216;DHT22;3649;48.798;9.798;2023-07-13T14:33:16;28.30;81.40
7216;DHT22;3649;48.798;9.798;2023-07-13T14:35:44;28.20;82.20
7216;DHT22;3649;48.798;9.798;2023-07-13T14:38:15;28.20;82.00
7216;DHT22;3649;48.798;9.798;2023-07-13T14:40:42;28.20;81.10
7216;DHT22;3649;48.798;9.798;2023-07-13T14:43:11;28.20;82.10
7216;DHT22;3649;48.798;9.798;2023-07-13T14:45:50;28.20;83.50
7216;DHT22;3649;48.798;9.798;2023-07-13T14:48:21;28.20;84.00
7216;DHT22;3649;48.798;9.798;2023-07-13T14:50:58;28.20;84.50
7216;DHT22;3649;48.798;9.798;2023-07-13T14:53:26;28.20;80.30
7216;DHT22;3649;48.798;9.798;2023-07-13T14:55:56;28.30;78.60
7216;DHT22;3649;48.798;9.798;2023-07-13T14:58:23;28.30;80.30
7216;DHT22;3649;48.798;9.798;2023-07-13T15:00:50;28.40;79.30
7216;DHT22;3649;48.798;9.798;2023-07-13T15:03:24;28.40;81.30
7216;DHT22;3649;48.798;9.798;2023-07-13T15:05:52;28.40;78.50
7216;DHT22;3649;48.798;9.798;2023-07-13T15:08:19;28.40;79.10
7216;DHT22;3649;48.798;9.798;2023-07-13T15:10:46;28.50;78.60
7216;DHT22;3649;48.798;9.798;2023-07-13T15:13:19;28.40;78.50
7216;DHT22;3649;48.798;9.798;2023-07-13T15:15:48;28.40;78.40
7216;DHT22;3649;48.798;9.798;2023-07-13T15:18:18;28.40;78.60
7216;DHT22;3649;48.798;9.798;2023-07-13T15:20:47;27.70;79.30
7216;DHT22;3649;48.798;9.798;2023-07-13T15:23:16;28.30;79.80
7216;DHT22;3649;48.798;9.798;2023-07-13T15:25:45;28.30;79.00
7216;DHT22;3649;48.798;9.798;2023-07-13T15:28:12;28.30;79.10
7216;DHT22;3649;48.798;9.798;2023-07-13T15:30:45;28.30;78.30
7216;DHT22;3649;48.798;9.798;2023-07-13T15:33:26;28.30;78.00
7216;DHT22;3649;48.798;9.798;2023-07-13T15:35:54;28.30;79.60
7216;DHT22;3649;48.798;9.798;2023-07-13T15:38:24;28.20;79.70
7216;DHT22;3649;48.798;9.798;2023-07-13T15:40:52;28.20;80.40
7216;DHT22;3649;48.798;9.798;2023-07-13T15:43:20;28.20;80.60
7216;DHT22;3649;48.798;9.798;2023-07-13T15:45:47;28.20;80.10
7216;DHT22;3649;48.798;9.798;2023-07-13T15:48:32;28.20;79.20
7216;DHT22;3649;48.798;9.798;2023-07-13T15:51:04;28.20;80.50
7216;DHT22;3649;48.798;9.798;2023-07-13T15:53:33;28.10;78.90
7216;DHT22;3649;48.798;9.798;2023-07-13T15:56:03;28.10;79.30
7216;DHT22;3649;48.798;9.798;2023-07-13T15:58:38;28.10;79.10
7216;DHT22;3649;48.798;9.798;2023-07-13T16:01:08;28.10;79.80
7216;DHT22;3649;48.798;9.798;2023-07-13T16:03:35;28.00;81.00
7216;DHT22;3649;48.798;9.798;2023-07-13T16:06:02;28.10;80.60
7216;DHT22;3649;48.798;9.798;2023-07-13T16:08:31;28.00;79.20
7216;DHT22;3649;48.798;9.798;2023-07-13T16:11:00;28.10;79.20
7216;DHT22;3649;48.798;9.798;2023-07-13T16:13:27;28.10;79.20
7216;DHT22;3649;48.798;9.798;2023-07-13T16:15:54;28.00;80.10
7216;DHT22;3649;48.798;9.798;2023-07-13T16:18:23;28.10;79.80
7216;DHT22;3649;48.798;9.798;2023-07-13T16:20:51;28.00;80.40
7216;DHT22;3649;48.798;9.798;2023-07-13T16:23:20;28.00;80.50
7216;DHT22;3649;48.798;9.798;2023-07-13T16:25:48;27.90;79.10
7216;DHT22;3649;48.798;9.798;2023-07-13T16:28:15;27.80;80.10
7216;DHT22;3649;48.798;9.798;2023-07-13T16:30:42;27.90;80.20
7216;DHT22;3649;48.798;9.798;2023-07-13T16:33:10;27.90;79.80
7216;DHT22;3649;48.798;9.798;2023-07-13T16:35:40;28.00;80.60
7216;DHT22;3649;48.798;9.798;2023-07-13T16:38:17;28.00;79.40
7216;DHT22;3649;48.798;9.798;2023-07-13T16:40:45;27.90;79.60
7216;DHT22;3649;48.798;9.798;2023-07-13T16:43:15;27.90;80.10
7216;DHT22;3649;48.798;9.798;2023-07-13T16:45:48;27.90;80.50
7216;DHT22;3649;48.798;9.798;2023-07-13T16:48:20;27.90;80.80
7216;DHT22;3649;48.798;9.798;2023-07-13T16:50:54;27.80;81.40
7216;DHT22;3649;48.798;9.798;2023-07-13T16:53:27;27.80;80.90
7216;DHT22;3649;48.798;9.798;2023-07-13T16:55:55;27.80;81.30
7216;DHT22;3649;48.798;9.798;2023-07-13T16:58:34;27.80;81.40
7216;DHT22;3649;48.798;9.798;2023-07-13T17:01:01;27.80;81.20
7216;DHT22;3649;48.798;9.798;2023-07-13T17:03:31;27.80;81.20
7216;DHT22;3649;48.798;9.798;2023-07-13T17:06:02;27.80;81.50